My Meet Scores
Top100 | Top Teams | Upcoming Meets | Completed Meets | Latest | Add Scores | Help| Support | Bookmark and Share
Star Bound Gymnastics Academy - MyMeetScores.com
Star Bound Gymnastics Academy
State Website
NJ www.starboundgymnastics.com
Hosted Meets
Start Meet Gymnasts
2018-04-20 2018 New Jersey Level 5, 6, 7 States 420
2018-04-07 Mardi Gras Madness 180
2018-03-17 Lucky Leprechaun 190
2018-01-12 21st Annual Star Struck Invitational 2518
2017-11-12 No Fall Festival
2017-10-15 Spooktacular
2017-08-17 Moving Up Meet 2017
2017-04-01 Stars Of Hollywood Invitational 301
2017-03-18 Lucky Leprechaun Meet 283
2017-02-19 Level 5-7 Sectional #2 68
2017-01-13 20th Annual Star Struck Invitational 2501
2016-11-20 No Fall Festival 55
2016-10-16 Spooktacular 84
2016-04-23 2016 New Jersey Level 5, 6, 7 State Championships 441
2016-04-10 Flower Power Classic 143
2016-03-12 Lucky Leprechaun Meet 457
2016-02-27 Level 5-8 Sectional #2 111
2016-01-15 19th Annual Star Struck Invitational 2476
2015-11-15 Star Bounds No Fall Festival
2015-10-18 Star Bounds Spooktacular 44
2015-08-19 Moving Up Meet
2015-04-25 2015 New Jersey Level 5,6,7 States 407
2015-04-11 2015 Spring Fling 116
2015-03-07 Clover Challenge 129
2015-02-28 Level 5-8 NJ Sectional #2 113
2015-02-01 Cupids Classic 239
2015-01-16 18th Annual Star Struck Invitational 1000
2014-12-14 Winter Wonderland
2014-11-23 All Star Classic
2014-10-19 Fall Festival
2014-06-07 Moving Up Meet
2014-03-09 Clover Challenge 167
2014-03-09 Cupids Classic Level 2 Championships
2014-01-17 17th Annual Star Struck Invitational 1663
2013-11-24 Fall Festival
2013-11-09 Level 3 4 5 Sectional 1
2013-10-13 All-Star Classic 98
2013-04-06 2013 New Jersey Level 7, 8 State Championships 324
2013-03-10 Super Stars Spectacular
2013-02-23 Level 78 Sectional 2
2013-02-17 Cupids Classic Level 3 Championships 137
2013-01-18 16th Annual Star Struck Invitational 1672
2012-12-15 Moving Up Meet 2
2012-11-18 Fall Festival
2012-10-07 All-Star Classic 140
2012-08-23 Moving Up Meet
2012-03-11 Super Stars Spectacular 106
2012-02-05 Cupids Classic / Level 3 Championships 85
2012-01-13 15th Annual Star Struck Invitational 1276
2011-11-20 Fall Festival 140
2011-10-16 All Star Classic 150
2011-03-27 2011 New Jersey Level 3 Championships 38
2011-02-20 Super Stars Spectacular
2011-01-14 14th Annual Star Struck Invitational 1036
2010-11-14 Fall Festival
2010-10-03 All-Star Classic
2010-04-25 Star Bound Spring Fling 78
2010-01-15 13th Annual Star Struck Invitational 863
2009-11-22 Star Bound Fall Festival 116
2009-09-27 Super Stars Spectacular 97
2009-03-15 Lucky Star Challenge 111
2009-02-14 12th Annual Star Struck Invitational 511
2008-12-14 Level 4,6,7 Sectional #3 117
2008-11-02 Super Stars Spectacular
2008-09-21 All-Star Classic
Gymnasts
Personal Bests
Name Level Latest Meet Vault Bars Beam Floor AA
Blessley, Elizabeth 9S 2018-05-03 9.250 9.325 8.900 9.225 36.700
Bassett, Emily 6 2018-04-20 9.450 8.850 9.350 9.300 36.875
Batario, Raiza XS 2018-04-20 9.300 9.650 9.675 9.650 37.550
BATTAVIO, TALIA BR 2018-04-20 9.400 9.600 9.550 9.650 37.650
Bonatara, Ciana 6L 2018-04-20 9.000 8.600 9.350 9.175 36.000
Conti, Cadence BR 2018-04-20 9.400 9.525 9.500 9.575 37.350
FERRARI, CAMERON 7L 2018-04-20 9.475 9.225 9.575 9.525 37.450
Foster, Alexa 7L 2018-04-20 9.350 8.900 9.500 9.475 36.950
Gramble, Mackenzie 6L 2018-04-20 9.050 8.875 9.325 9.075 35.925
Gramble, Riley 6L 2018-04-20 9.250 8.150 9.475 9.350 35.650
Grippo, Isabella BS 2018-04-20 9.300 9.050 9.350 9.200 36.550
Mascieri, Vienna 6L 2018-04-20 8.875 8.400 9.275 8.925 34.725
Maxwell, Lily 6L 2018-04-20 9.400 8.750 9.475 9.425 36.675
Newcomb, Emma 6L 2018-04-20 9.475 9.200 9.575 9.550 37.475
Sobczak, Alyson BRD 2018-04-20 9.450 9.500 9.675 9.700 38.050
Stanfa, Angelina 7L 2018-04-20 9.625 9.550 9.750 9.725 38.050
Watt, Brooke 7L 2018-04-20 9.450 9.450 9.500 9.475 37.300
Williams, Kailyn 6L 2018-04-20 9.000 8.750 9.500 9.300 35.950
Papiano, Morgan XS 2018-04-14 9.450 9.700 9.550 9.600 37.750
Smith, Hannah XS 2018-04-14 9.600 9.450 9.550 9.700 37.850
Battavio, Brayden 10 2018-04-12 12.450 9.900 10.200 11.400 42.700
Lancetta, Brooke 9S 2018-04-12 9.700 9.750 9.825 9.775 38.750
Rios, Ciana 10 2018-04-12 9.100 9.350 9.450 9.500 36.775
Adoronto, Reghan XB 2018-04-07 9.300 9.650 9.150 9.050 36.500
Alvarez, Lilah XB 2018-04-07 9.400 9.000 9.250 9.300 36.600
Capoferri, Gianna XS 2018-04-07 9.350 9.350 9.600 9.300 37.375
Carroll, Aubree XB 2018-04-07 9.475 9.500 9.400 9.550 37.450
Champagne, Kaniya XB 2018-04-07 9.500 9.200 9.200 9.350 37.000
Cruz, Zenyla XS 2018-04-07 9.450 9.700 9.450 9.300 37.300
Garcia, Angelina XS 2018-04-07 9.300 9.500 9.500 9.225 37.300
Gramble, Addison XS 2018-04-07 8.500 9.250 9.400 8.800 35.650
Grundlock, Alexandra XS 2018-04-07 9.350 9.500 9.250 9.800 37.050
HARRINGTON, JADEN XS 2018-04-07 9.400 9.350 9.250 9.550 36.450
Hryckowian, Juliana XG 2018-04-07 8.825 9.050 9.300 9.250 35.600
Jones, Kaitlyn XS 2018-04-07 9.500 9.650 9.600 9.300 37.600
Kucharczuk, Hailey XB 2018-04-07 9.500 9.825 9.600 9.600 37.800
Laury, Myla XB 2018-04-07 9.400 9.250 9.300 9.050 36.750
Lee, Kimora XB 2018-04-07 9.800 9.500 9.000 9.550 37.450
Levick, Lyla XB 2018-04-07 9.400 9.550 9.300 9.300 37.050
Lewis, Emerson XS 2018-04-07 9.500 9.750 9.350 9.250 36.750
Pierce, Alyssa XS 2018-04-07 9.600 9.750 9.650 9.500 37.500
Seeley-Moore, Kennedy XS 2018-04-07 9.300 9.400 9.300 9.400 36.300
Tharp, Jolea XB 2018-04-07 9.400 9.600 9.200 9.250 36.600
Wiltshire, Lailah BR 2018-04-07 9.600 9.100 9.575 9.575 37.325
Ford, Emily 8S 2018-04-06 9.500 9.225 9.300 9.450 37.000
Foster, Ava 8L 2018-04-06 9.575 9.000 9.600 9.550 37.575
Lancetta, Abbie BRD 2018-04-06 9.725 9.425 9.700 9.675 37.925
Otero, Mikki 8L 2018-04-06 9.625 9.675 9.450 9.725 37.700
Schmidt, Justine 8S 2018-04-06 9.100 9.300 9.400 9.300 36.775
Anderson, Sabrina CP 2018-03-17 9.100 8.500 8.900 9.000 34.750
Anderson, Tai-Chelle Bronze 2018-03-17 8.750 8.100 9.150 9.300 34.750
Armstrong, Ashley Bronze 2018-03-17 9.400 9.350 9.400 9.500 37.300
Crabtree, Claudia XS 2018-03-17 9.050 9.475 9.600 9.400 36.800
Crabtree, Olivia SS 2018-03-17 9.300 9.050 9.450 9.450 37.000
Garber, Bronwyn Bronze 2018-03-17 8.700 8.300 8.500 9.250 34.750
Hammond, Kaylee XS 2018-03-17 9.450 9.450 9.700 9.450 37.650
McGriff, Diara CP 2018-03-17 9.200 8.100 9.350 9.450 35.450
Melnick, Ava XB 2018-03-17 9.250 9.250 9.600 9.250 36.750
O%27Hara, Courtney Bronze 2018-03-17 8.900 8.500 8.650 9.350 35.400
Praul, Isabella Bronze 2018-03-17 9.150 8.850 9.100 9.250 35.950
Procopio, Talia BR 2018-03-17 9.150 9.500 9.125 9.150 35.800
Ruegger, Carly XB 2018-03-17 9.300 9.750 9.650 9.600 38.000
Staniec, Shea CP 2018-03-17 9.000 8.650 9.450 9.400 35.650
Volov, Jocelyn Bronze 2018-03-17 9.050 8.600 9.000 9.450 35.950
Volov, Lillian Bronze 2018-03-17 9.000 9.100 8.900 9.450 36.400
Battavio, Brayden 10 2018-02-23 9.800 9.425 9.725 9.650 37.400
Battavio, Talia 7L 2018-02-23 9.500 9.375 9.500 9.800 37.125
Conti, Cadence BR 2018-02-23 9.300 9.100 9.475 9.675 36.600
Graff, Nola BR 2018-02-23 9.550 9.350 9.475 9.450 36.575
Grundlock, Alexandra XG 2018-02-23 9.000 8.650 9.500 9.150 35.550
Kelly, Ava 9S 2018-02-23 9.450 9.700 9.250 9.000 36.800
Sobczak, Alyson 7L 2018-02-23 9.425 9.300 9.425 9.550 37.225
Harding, Heather SS 2018-02-11 9.500 8.850 9.450 9.500 37.000
FORD, EMILY 8 2018-02-07 9.700 9.525 9.650 9.625 37.750
FOSTER, AVA BR 2018-02-07 9.775 9.650 9.750 9.475 37.900
Myrick, Shan'teria SL 2018-02-07 9.425 9.400 9.450 9.500 37.600
Kline, Charley 6L 2018-02-03 9.525 8.700 9.000 9.275 36.100
DeLucca, Kate 8L 2018-01-20 8.350 8.550 9.050 8.950 34.800
Otero, Mikayla BR 2018-01-20 9.525 9.450 9.650 9.700 37.625
Bongiorno, Mia BR 2018-01-12 9.600 9.550 9.725 9.600 37.950
Addison, Gramble XS 2017-12-16 9.150 8.600 8.600 8.900 35.250
Alexandra, Grundlock XG 2017-12-16 8.700 8.300 8.850 9.200 35.050
Alyssa, Pierce XS 2017-12-16 9.100 8.350 9.200 9.000 35.650
Angelina, Garcia XS 2017-12-16 9.100 8.500 7.500 8.300 33.400
Aubree, Carroll XB 2017-12-16 9.100 9.000 8.600 9.500 36.200
Ava, Melnick XB 2017-12-16 8.700 8.200 9.000 8.850 34.750
Carly, Ruegger XB 2017-12-16 9.000 9.100 8.900 9.550 36.550
Emerson, Lewis XS 2017-12-16 9.600 8.700 8.300 9.100 35.700
Gianna, Pearlingi XG 2017-12-16 9.450 8.850 6.600 9.300 34.200
Hailey, Kucharczuk XB 2017-12-16 9.400 9.600 7.800 9.150 35.950
Jaden, Harrington XG 2017-12-16 9.400 9.000 8.400 9.150 35.950
Jolea, Tharp XB 2017-12-16 9.100 8.500 8.800 9.200 35.600
Juliana, Hryckowian XG 2017-12-16 8.800 7.300 6.800 9.100 32.000
Kaitlyn, Jones XS 2017-12-16 9.700 9.300 9.000 8.400 36.400
Kaniya, Champagne XB 2017-12-16 9.200 8.500 8.500 8.900 35.100
Kennedy, Seeley-Moore XG 2017-12-16 8.900 8.700 8.500 8.700 34.800
Kimora, Lee XB 2017-12-16 9.050 8.400 8.900 9.500 35.850
Lilah, Alvarez XB 2017-12-16 8.900 8.100 8.800 8.900 34.700
Lyla, Levick XB 2017-12-16 9.000 8.700 8.100 9.100 34.900
Myla, Laury XB 2017-12-16 9.000 8.000 9.100 9.000 35.100
Reghan, Adoronto XB 2017-12-16 9.200 9.350 9.250 9.400 37.200
Zenyla, Cruz XS 2017-12-16 9.300 8.100 8.600 9.050 35.050
Beasley, Layla XB 2017-06-02 9.200 9.400 9.425 9.500 36.625
Ferrari, Landyn XB 2017-06-02 9.250 9.300 9.525 9.025 36.050
Missar, Cecilia XB 2017-06-02 9.050 9.250 9.300 9.150 36.000
Padalik, Tanner XS 2017-06-02 8.900 8.900 9.700 9.450 36.500
Celestin, Andree Bronze 2017-05-26 9.300 8.600 8.700 8.950 35.450
Kelly, Hannah SS 2017-05-26 9.275 9.550 9.100 9.550 36.725
Myrick, Shanteria Silver 2017-05-26 9.400 8.700 9.250 9.600 36.875
Menz, Addison XB 2017-05-06 9.500 9.600 9.525 9.600 37.550
Dalfonso, Cecilia Bronze 2017-05-05 9.150 8.150 9.050 8.950 34.650
Dalfonso, Gabriella Bronze 2017-05-05 9.350 8.000 8.000 8.650 33.550
Myrick, Shan'teria SL 2017-05-05 9.550 9.350 9.500 9.525 37.450
Nelson, Carter Gold 2017-05-05 9.275 9.400 9.500 9.325 36.825
Zikowski, Adriana Bronze 2017-05-05 7.800 7.400 8.050 8.900 31.250
Miller, Mackenzie BR 2017-04-22 9.575 9.350 9.500 9.700 37.525
Shumaker, Desireah 6 2017-04-22 9.500 9.600 9.600 9.825 38.000
Bongiorno, Alexandria 10 2017-04-05 9.200 8.900 9.350 9.425 36.300
Heath, Julia BR 2017-04-05 9.800 9.600 9.550 9.675 37.900
Furlow, Celia SS 2017-04-01 9.000 9.000 8.800 9.300 36.050
Hollenweger, Alexis 5 2017-04-01 9.000 9.300 9.500 8.975 36.100
Kelly, Hannah SS 2017-04-01 9.200 9.100 8.850 9.400 36.550
Lewis, Allyson BRonze 2017-04-01 8.200 8.200 8.500 8.600 32.800
Guzzardo, Julianna 8S 2017-03-30 8.700 8.475 8.525 9.275 34.300
Scambia, Madison 8S 2017-03-30 8.950 9.175 9.425 9.600 36.750
Bongiorno, Alexandria 10 2017-02-24 12.200 9.200 10.700 9.850 39.550
KELLY, AVA SS 2017-02-24 9.550 9.550 9.400 9.550 37.200
Roscoe, Becca 6L 2017-02-17 9.250 9.000 9.500 9.800 37.100
Haughton, Eriyonna CP 2017-01-13 8.900 7.600 8.500 8.750 33.500
Pearlingi, Gianna C1 2016-12-08 9.250 9.500 9.050 8.850 36.250
Perlingli, Gianna 4 2016-11-06 8.850 9.000 8.400 9.050 35.300
Crabtree, Mckenna SL 2016-06-23 9.500 8.600 9.200 9.150 34.950
DeJesus, Bianca BS 2016-06-23 9.150 8.250 9.550 9.100 34.950
Rosa, Kaylyn CP 2016-06-23 9.650 9.400 9.575 9.850 38.000
Mattie, Mckinleigh SS 2016-05-06 8.900 8.800 8.900 8.850 35.250
DARDEN, XIOMARA BR 2016-04-23 9.600 9.625 9.350 9.450 36.900
Firestone, Alexa 8 2016-04-23 9.575 9.175 9.475 9.575 37.675
Thompson, Emily 6S 2016-04-23 9.450 9.350 9.250 9.600 37.325
Fallon, Katie CP 2016-03-12 9.100 8.400 8.000 9.000 34.500
Malickel, Amani CP 2016-03-12 9.100 8.300 8.500 9.200 35.100
Marshall, Kaylin CP 2016-03-12 9.000 8.000 8.000 8.100 33.100
McDowell, Serenity CP 2016-03-12 9.000 8.300 8.750 8.300 34.350
Mingin, Tulana CP 2016-03-12 9.200 7.900 8.400 9.300 34.800
Nichols, Anna CP 2016-03-12 9.000 7.000 8.000 8.800 32.800
Patitucci, Gianna CP 2016-03-12 9.100 7.500 8.350 9.000 33.950
Pierce, Makenzie CP 2016-03-12 8.900 7.800 8.700 9.100 34.500
Sbrana, Cayla CP 2016-03-12 9.000 8.500 8.200 8.600 34.300
Seda, Destiny CP 2016-03-12 9.200 8.600 9.000 9.200 36.000
Seiden, Sarah CP 2016-03-12 8.900 8.400 8.250 7.700 33.250
Smith, Carissa CP 2016-03-12 8.900 8.400 8.900 8.800 35.000
Tomlin, Melania CP 2016-03-12 9.300 8.600 8.700 8.900 35.500
Whitesell, Lawren CP 2016-03-12 0.000 0.000 0.000 0.000 0.000
Lemma, Briar-Rose 8S 2016-02-12 8.425 9.450 9.150 9.025 35.550
Dell'Angelo, Carina SS 2016-01-15 9.000 8.650 8.800 9.200 34.975
HOLLEWEGER, ALEXIS 4 2015-10-24 7.700 7.650 7.975 7.500 30.825
Firestone, Alexa 5 2015-10-18 9.200 7.000 8.800 8.700 33.700
McKingleigh, Mattie BR 2015-05-01 8.700 8.000 8.925 9.000 34.625
Zhang, Christina BRD 2015-05-01 9.150 8.400 9.200 9.200 35.900
Cummings, Lilianna SS 2015-04-25 9.625 9.300 9.550 9.550 37.375
Bongiorno, Allie GD 2015-03-27 9.425 8.850 8.650 9.425 36.050
Dawkins, Kylyn 10 2015-03-27 9.700 9.200 9.450 9.350 37.200
Hastings, Peyton 4 2015-02-13 9.300 9.125 9.250 9.250 36.550
Kwap, Camryn 4 2015-02-13 9.550 8.600 8.500 9.200 34.700
Keels, Taya BR 2015-02-01 8.300 9.100 8.750 9.000 35.150
TEDESCO, AVA BR 2015-02-01 9.650 9.500 9.400 9.450 37.350
Crabtree, Oliva 4 2014-11-08 8.600 8.750 9.325 8.575 35.250
Guiliani, Nicoletta 4 2014-11-08 8.575 7.800 8.700 8.100 33.175
GIULIANI, NIOLETTA 4 2014-10-24 8.300 6.700 8.350 7.700 31.050
Dermott, Ashley SS 2014-05-09 8.800 9.200 8.800 9.000 35.450
Gallatig, Katherine BR 2014-05-09 8.300 8.750 9.250 9.250 35.500
Kinkade, Kimmy GL 2014-05-09 9.725 9.450 9.425 9.850 36.525
Olszewski, Bailey CP 2014-05-09 9.150 9.200 9.225 9.175 36.050
Syring, Brynn CP 2014-05-09 9.000 9.300 8.700 9.150 36.000
Crispin, Kristen 10 2014-04-12 9.750 9.300 9.650 9.600 37.500
Cheesman, Emmi 2 2014-03-09 8.900 8.575 8.950 9.000 34.550
Hagerty, Makenna 3 2014-03-09 9.175 9.100 9.700 9.275 36.725
Kelly, Hannah SL 2014-03-09 9.000 0.000 0.000 8.600 17.600
Mckinleigh, Mattie BR 2014-03-09 9.000 8.700 8.900 8.600 35.200
Weist, Addison 2 2014-03-09 8.350 8.850 8.800 8.300 33.675
Kinkade, Kimberly 8 2014-01-25 9.500 9.375 8.950 9.400 36.500
Buzby, Anna 2 2014-01-17 9.125 9.125 8.700 8.700 35.475
Cardente, Faith CP 2014-01-17 8.800 8.100 9.100 9.050 35.050
COLON, LAYLA 4 2014-01-17 9.025 9.000 9.325 8.400 35.550
Gallatig, Kate BM 2014-01-17 7.800 7.800 9.100 9.000 33.700
Martinez, Bella 2 2014-01-17 9.175 9.200 8.800 8.700 35.750
Colon, Layla 5S 2013-10-13 9.300 9.150 9.500 9.000 35.150
Tedesco, Ava 4L 2013-10-13 9.300 9.400 9.100 9.050 36.250
Acosta, Brianna PL 2013-04-12 9.600 9.300 9.500 9.575 36.900
Gerstle, Cassidy 5S 2013-03-02 9.450 9.050 8.250 8.900 34.250
Trimble, Alexandra 4L 2013-03-02 9.450 8.900 9.000 8.525 34.950
RIPPEE, VANNESA BR 2013-02-17 8.000 7.100 8.750 9.000 32.850
(Sadie) Mills, Sydney CP 2013-02-17 9.200 8.500 8.550 8.200 34.450
Adams, Nali SL 2013-02-17 9.000 7.500 8.450 8.000 32.950
Agarwal, Avishi SL 2013-02-17 8.800 9.200 8.700 8.600 35.300
Akada, Lelia BR 2013-02-17 8.200 6.500 7.600 7.400 29.700
Albisser, Anisa 4 2013-02-17 9.050 7.700 8.400 8.000 33.150
Allan, Lindsay SL 2013-02-17 9.000 7.500 8.450 8.000 32.950
Allen, Savannah 3 2013-02-17 8.900 8.400 8.150 8.200 33.650
Apovor, Kaulyiha BR 2013-02-17 8.200 6.500 7.600 7.400 29.700
Appelgate, Remi SL 2013-02-17 9.000 7.500 8.450 8.000 32.950
Arad, Aoe 4 2013-02-17 9.050 7.700 8.400 8.000 33.150
Arthur, Sabrina 3 2013-02-17 9.300 7.500 7.700 8.150 32.650
Badia, Gabriela 3 2013-02-17 8.900 8.400 8.150 8.200 33.650
Bailey, Kaitlyn 4 2013-02-17 9.350 7.700 8.300 8.800 34.150
Barillas, Marleny CP 2013-02-17 9.200 8.500 8.550 8.200 34.450
Barrows, Katie 3 2013-02-17 8.900 7.500 9.050 8.600 34.050
Bates, Amaya CP 2013-02-17 9.200 8.500 8.550 8.200 34.450
Battu, Isha 4 2013-02-17 9.350 7.700 8.300 8.800 34.150
Becker, Kelly BR 2013-02-17 8.200 6.500 7.600 7.400 29.700
Beers, Lauren 4 2013-02-17 9.050 7.700 8.400 8.000 33.150
Bell, Leslie BR 2013-02-17 7.700 8.300 8.000 8.800 32.800
Bergmeier, Isabella BR 2013-02-17 7.700 6.800 8.200 8.300 31.000
Bertsch, Sophia SL 2013-02-17 8.800 9.200 8.700 8.600 35.300
Biggar, Taylor CP 2013-02-17 9.200 8.500 8.550 8.200 34.450
Biros, Meaghan BR 2013-02-17 8.200 6.500 7.600 7.400 29.700
Blackford, Ariana 3 2013-02-17 8.900 7.500 9.050 8.600 34.050
Boggs, Abby BR 2013-02-17 7.700 6.800 8.200 8.300 31.000
Bosaw, Nora BR 2013-02-17 8.000 7.100 8.750 9.000 32.850
Boyd, Amber 4 2013-02-17 9.350 7.700 8.300 8.800 34.150
Brazell, Jacklin SL 2013-02-17 8.800 9.200 8.700 8.600 35.300
Breanna, Jennette 3 2013-02-17 9.300 7.500 7.700 8.150 32.650
Brosoff, Charlotte CP 2013-02-17 9.200 8.500 8.550 8.200 34.450
Brown, Ella SL 2013-02-17 8.800 9.200 8.700 8.600 35.300
Buenrostro, Giselle CP 2013-02-17 9.200 8.500 8.550 8.200 34.450
Burkett, Kandence 4 2013-02-17 9.350 7.700 8.300 8.800 34.150
Byrd, Brittany 3 2013-02-17 8.900 8.400 8.150 8.200 33.650
Calderon, Lizbeth BR 2013-02-17 7.700 8.300 8.000 8.800 32.800
Carson, Aimee CP 2013-02-17 9.200 8.500 8.550 8.200 34.450
Castellini, Camryn SL 2013-02-17 9.000 7.500 8.450 8.000 32.950
Castillo, Destinee SL 2013-02-17 8.800 9.200 8.700 8.600 35.300
Chavey, Belle 3 2013-02-17 9.200 7.800 8.300 8.550 33.850
Christiansen, Alyssa BR 2013-02-17 8.000 7.100 8.750 9.000 32.850
Christoffersen, Akacia 3 2013-02-17 9.200 7.800 8.300 8.550 33.850
Clark, Maleena 3 2013-02-17 9.300 7.500 7.700 8.150 32.650
Connors, Courtney SL 2013-02-17 8.800 9.200 8.700 8.600 35.300
Conway, Hannah CP 2013-02-17 9.200 8.500 8.550 8.200 34.450
Cozza, Makenna 3 2013-02-17 8.900 8.400 8.150 8.200 33.650
Cuperman Steiner, Yael SL 2013-02-17 9.000 7.500 8.450 8.000 32.950
Davison, Brenna SL 2013-02-17 9.000 7.500 8.450 8.000 32.950
Dayton, Nicole CP 2013-02-17 9.200 8.500 8.550 8.200 34.450
Delaney, Mia SL 2013-02-17 9.000 7.500 8.450 8.000 32.950
Dennis, Kristin 3 2013-02-17 8.900 7.500 9.050 8.600 34.050
Dermott, Ashley SL 2013-02-17 8.800 9.200 8.700 8.600 35.300
Deyoung, Carolyne 3 2013-02-17 9.200 7.800 8.300 8.550 33.850
DiGanci, Ashley 4 2013-02-17 9.050 7.700 8.400 8.000 33.150
DiMise, Alessandra BR 2013-02-17 8.000 7.100 8.750 9.000 32.850
Early, Sara BR 2013-02-17 7.700 6.800 8.200 8.300 31.000
Elggren, Mara BR 2013-02-17 7.700 6.800 8.200 8.300 31.000
Embry, Kyli BR 2013-02-17 8.200 6.500 7.600 7.400 29.700
Fallin, Dani SL 2013-02-17 8.800 9.200 8.700 8.600 35.300
Fields, Ashleigh 3 2013-02-17 9.300 7.500 7.700 8.150 32.650
Filiatreau, Meg SL 2013-02-17 8.800 9.200 8.700 8.600 35.300
Fisher, Leah BR 2013-02-17 8.200 6.500 7.600 7.400 29.700
Fleck, Kaiya BR 2013-02-17 8.200 6.500 7.600 7.400 29.700
Fludzinkski, Ella BR 2013-02-17 7.700 8.300 8.000 8.800 32.800
Fowler, Leah CP 2013-02-17 9.200 8.500 8.550 8.200 34.450
Foy, Anna BR 2013-02-17 7.700 6.800 8.200 8.300 31.000
Garavito Duque, Laura BR 2013-02-17 8.200 6.500 7.600 7.400 29.700
Gerstle, Taylor SS 2013-02-17 9.100 9.000 8.750 8.900 34.800
Gill, Alana 3 2013-02-17 8.900 7.500 9.050 8.600 34.050
Gluricich, Julia 3 2013-02-17 8.900 8.400 8.150 8.200 33.650
Golden, MaKenna SL 2013-02-17 8.800 9.200 8.700 8.600 35.300
Gonzalez, Eunice BR 2013-02-17 7.700 6.800 8.200 8.300 31.000
Goos, Emma BR 2013-02-17 8.000 7.100 8.750 9.000 32.850
Gracyen Gordon, Mary 3 2013-02-17 8.900 8.400 8.150 8.200 33.650
Greenberg, Skylar BR 2013-02-17 7.700 6.800 8.200 8.300 31.000
Greene, Melissa SS 2013-02-17 9.050 8.800 9.500 9.150 36.500
GRONDAHL, JADYN BR 2013-02-17 7.700 8.300 8.000 8.800 32.800
Grundlock, Alexandra 3 2013-02-17 9.300 7.500 7.700 8.150 32.650
Gussler-Flowers, Yanni 3 2013-02-17 8.900 8.400 8.150 8.200 33.650
Guyett, Remy BR 2013-02-17 8.200 6.500 7.600 7.400 29.700
Guzman, Lesly 4 2013-02-17 9.350 7.700 8.300 8.800 34.150
Hagerty, Makenna 3 2013-02-17 8.900 7.500 9.050 8.600 34.050
Hall, Marissa 4 2013-02-17 9.050 7.700 8.400 8.000 33.150
Hamlin, Kristen SL 2013-02-17 9.000 7.500 8.450 8.000 32.950
Hamson, Heather 3 2013-02-17 8.900 7.500 9.050 8.600 34.050
Hanley, Tatum 3 2013-02-17 9.300 7.500 7.700 8.150 32.650
Hannum, Bethany SS 2013-02-17 9.800 9.650 9.250 9.550 38.150
Hansen, Adelynne 4 2013-02-17 9.350 7.700 8.300 8.800 34.150
Hargraves, Kayla 3 2013-02-17 9.300 7.500 7.700 8.150 32.650
Harris, Ainsley 3 2013-02-17 9.200 7.800 8.300 8.550 33.850
Hartog, Maddie 3 2013-02-17 9.200 7.800 8.300 8.550 33.850
Harvey, Savannah BR 2013-02-17 7.700 8.300 8.000 8.800 32.800
Hassen, Anita BR 2013-02-17 8.200 6.500 7.600 7.400 29.700
Hastings, Peyton 3 2013-02-17 8.900 8.400 8.150 8.200 33.650
Hebert, Katie 3 2013-02-17 9.200 7.800 8.300 8.550 33.850
Hermann, Victoria BR 2013-02-17 7.700 6.800 8.200 8.300 31.000
Herring, Emma SL 2013-02-17 9.000 7.500 8.450 8.000 32.950
Hewitt, Sarus 4 2013-02-17 9.050 7.700 8.400 8.000 33.150
Hill, Jayden 4 2013-02-17 9.050 7.700 8.400 8.000 33.150
Hill, Maya 3 2013-02-17 8.900 8.400 8.150 8.200 33.650
Hnederson, Anna 3 2013-02-17 9.300 7.500 7.700 8.150 32.650
Ho, Liana 3 2013-02-17 8.900 7.500 9.050 8.600 34.050
Holland, Evie 4 2013-02-17 9.350 7.700 8.300 8.800 34.150
Horta, Julianna 3 2013-02-17 9.200 7.800 8.300 8.550 33.850
Hunt, Giselle CP 2013-02-17 9.200 8.500 8.550 8.200 34.450
Ivins, Jaida CP 2013-02-17 9.200 8.500 8.550 8.200 34.450
Jerndt, Jennifer CP 2013-02-17 9.200 8.500 8.550 8.200 34.450
Jo, Holly BR 2013-02-17 7.700 8.300 8.000 8.800 32.800
Johnson, Jaleigh BR 2013-02-17 8.000 7.100 8.750 9.000 32.850
Johnson, Sarah 4 2013-02-17 9.350 7.700 8.300 8.800 34.150
Kelly, Hannah BR 2013-02-17 8.000 7.100 8.750 9.000 32.850
Kenworthy, Kambria 4 2013-02-17 9.050 7.700 8.400 8.000 33.150
Kesler, leah BR 2013-02-17 7.700 8.300 8.000 8.800 32.800
King, Julia 3 2013-02-17 8.900 7.500 9.050 8.600 34.050
Kylen, Boundas 3 2013-02-17 8.900 8.400 8.150 8.200 33.650
Larson, Olesya BR 2013-02-17 8.000 7.100 8.750 9.000 32.850
Lauren, Milley 4 2013-02-17 9.350 7.700 8.300 8.800 34.150
Leath, Georgia 4 2013-02-17 9.050 7.700 8.400 8.000 33.150
Lee, Kate 3 2013-02-17 8.900 7.500 9.050 8.600 34.050
Loveland, Maia 3 2013-02-17 8.900 7.500 9.050 8.600 34.050
Lowe, Kennidi BR 2013-02-17 7.700 8.300 8.000 8.800 32.800
Lu, Jordan BR 2013-02-17 8.000 7.100 8.750 9.000 32.850
Luckett, Mckinsey 3 2013-02-17 9.200 7.800 8.300 8.550 33.850
Malcolm, Bradley BR 2013-02-17 7.700 6.800 8.200 8.300 31.000
Manganiello, Jenna 3 2013-02-17 9.300 7.500 7.700 8.150 32.650
Maniloff, Morgan 3 2013-02-17 9.300 7.500 7.700 8.150 32.650
Mann, Amber CP 2013-02-17 9.200 8.500 8.550 8.200 34.450
Marissa, Wells 3 2013-02-17 9.200 7.800 8.300 8.550 33.850
Martinez, Jenna BR 2013-02-17 8.200 6.500 7.600 7.400 29.700
Matwiejczuke, Julianna BR 2013-02-17 7.700 6.800 8.200 8.300 31.000
McArthur, Maddex BR 2013-02-17 8.000 7.100 8.750 9.000 32.850
McDonald, Savannah 3 2013-02-17 8.900 7.500 9.050 8.600 34.050
McSawley, Maggie 4 2013-02-17 9.050 7.700 8.400 8.000 33.150
Mercer, Reese BR 2013-02-17 7.700 6.800 8.200 8.300 31.000
Merckel, Daniela BR 2013-02-17 7.700 6.800 8.200 8.300 31.000
Meyers, Delaney 3 2013-02-17 9.200 7.800 8.300 8.550 33.850
Miles, Kiana BR 2013-02-17 7.700 8.300 8.000 8.800 32.800
Moore, Riley CP 2013-02-17 9.200 8.500 8.550 8.200 34.450
Morris, Cadyn BR 2013-02-17 8.200 6.500 7.600 7.400 29.700
Morris, Kelsey 4 2013-02-17 9.350 7.700 8.300 8.800 34.150
Mortensen, Amanda 3 2013-02-17 9.200 7.800 8.300 8.550 33.850
Moscarelli, Bianca BR 2013-02-17 8.000 7.100 8.750 9.000 32.850
Mulnern, Georgia 3 2013-02-17 9.300 7.500 7.700 8.150 32.650
Murnane, Grace 3 2013-02-17 9.300 7.500 7.700 8.150 32.650
Nanes, Alexa BR 2013-02-17 7.700 6.800 8.200 8.300 31.000
Neldberg, Destiny 3 2013-02-17 8.900 8.400 8.150 8.200 33.650
Newby, Marcella BR 2013-02-17 8.200 6.500 7.600 7.400 29.700
Newton, Tia 3 2013-02-17 9.200 7.800 8.300 8.550 33.850
O'Brien, Madisyn BR 2013-02-17 8.000 7.100 8.750 9.000 32.850
ORINGLE, JULES CP 2013-02-17 9.200 8.500 8.550 8.200 34.450
Parton, Ella CP 2013-02-17 9.200 8.500 8.550 8.200 34.450
PERLMUTER, MADDIE SL 2013-02-17 8.800 9.200 8.700 8.600 35.300
Pickard, Maddie 4 2013-02-17 9.350 7.700 8.300 8.800 34.150
Pineda, Michelle BR 2013-02-17 8.000 7.100 8.750 9.000 32.850
Pneuman, Denise 3 2013-02-17 8.900 7.500 9.050 8.600 34.050
Price, Kailee 4 2013-02-17 9.050 7.700 8.400 8.000 33.150
Quarry, Lexi BR 2013-02-17 7.700 8.300 8.000 8.800 32.800
Ratzlaff, Caleigh 4 2013-02-17 9.350 7.700 8.300 8.800 34.150
Reily, Alanna 3 2013-02-17 8.900 7.500 9.050 8.600 34.050
Riley, Hanna 3 2013-02-17 9.200 7.800 8.300 8.550 33.850
Rivera, Olivia SL 2013-02-17 8.800 9.200 8.700 8.600 35.300
Roberson, Berkly SL 2013-02-17 9.000 7.500 8.450 8.000 32.950
Rode, Logan BR 2013-02-17 7.700 6.800 8.200 8.300 31.000
ROLLINS, CARTER BR 2013-02-17 8.200 6.500 7.600 7.400 29.700
Roscoe, Rebecca 4 2013-02-17 9.350 7.700 8.300 8.800 34.150
Rose, Marina BR 2013-02-17 8.200 6.500 7.600 7.400 29.700
Salata, Kyra BR 2013-02-17 8.000 7.100 8.750 9.000 32.850
Salonia, Emily 3 2013-02-17 8.900 8.400 8.150 8.200 33.650
Sampson, Grace 4 2013-02-17 9.050 7.700 8.400 8.000 33.150
Sanner, Layce BR 2013-02-17 7.700 8.300 8.000 8.800 32.800
Santiago, Allyssa BR 2013-02-17 7.700 8.300 8.000 8.800 32.800
Savannah, Roell 4 2013-02-17 9.050 7.700 8.400 8.000 33.150
Schade, Krista 3 2013-02-17 8.900 8.400 8.150 8.200 33.650
Schassberger, Kacey BR 2013-02-17 8.200 6.500 7.600 7.400 29.700
Schulte, Rose CP 2013-02-17 9.200 8.500 8.550 8.200 34.450
Seddon, Andrea BR 2013-02-17 8.000 7.100 8.750 9.000 32.850
Seidowski, Kristen BR 2013-02-17 7.700 6.800 8.200 8.300 31.000
Simmons, Kavarclyn BR 2013-02-17 7.700 6.800 8.200 8.300 31.000
Smedberg, Sarah 3 2013-02-17 9.300 7.500 7.700 8.150 32.650
Smith, Lee BR 2013-02-17 8.000 7.100 8.750 9.000 32.850
Sobczak, Aly 3 2013-02-17 9.200 7.800 8.300 8.550 33.850
Sorbello, Andrea BR 2013-02-17 7.700 8.300 8.000 8.800 32.800
Stanfa, Angelina 4 2013-02-17 9.050 7.700 8.400 8.000 33.150
Steighner, Jane SL 2013-02-17 9.000 7.500 8.450 8.000 32.950
Stigers, Lauren BR 2013-02-17 7.700 6.800 8.200 8.300 31.000
Stinchcomb, Jenna BR 2013-02-17 7.700 8.300 8.000 8.800 32.800
Stom, Marissa 3 2013-02-17 9.300 7.500 7.700 8.150 32.650
Stumph, Brooke 3 2013-02-17 9.300 7.500 7.700 8.150 32.650
Sweeney, Colleen BR 2013-02-17 7.700 8.300 8.000 8.800 32.800
Teague, Amani SL 2013-02-17 8.800 9.200 8.700 8.600 35.300
TEETER, MADDIE SL 2013-02-17 9.000 7.500 8.450 8.000 32.950
Tew, Sienna BR 2013-02-17 7.700 8.300 8.000 8.800 32.800
Toledo, Gabrielle 4 2013-02-17 9.350 7.700 8.300 8.800 34.150
Trujillo, Victoria 4 2013-02-17 9.350 7.700 8.300 8.800 34.150
Tyler, Aislin BR 2013-02-17 8.000 7.100 8.750 9.000 32.850
Vaynshtok, Naomi BR 2013-02-17 7.700 8.300 8.000 8.800 32.800
Voss, Katie 4 2013-02-17 9.050 7.700 8.400 8.000 33.150
Wadley, Ava 3 2013-02-17 8.900 7.500 9.050 8.600 34.050
Wahl, Maya SL 2013-02-17 8.800 9.200 8.700 8.600 35.300
Walls, Cha'kyra BR 2013-02-17 7.700 8.300 8.000 8.800 32.800
Weaver, Avery SL 2013-02-17 8.800 9.200 8.700 8.600 35.300
Weber, Katherine SL 2013-02-17 8.800 9.200 8.700 8.600 35.300
Wentz, Annabelle BR 2013-02-17 8.000 7.100 8.750 9.000 32.850
West, Taryn 3 2013-02-17 8.900 7.500 9.050 8.600 34.050
White, Emily 3 2013-02-17 8.900 8.400 8.150 8.200 33.650
Wiley, Chloe 3 2013-02-17 9.200 7.800 8.300 8.550 33.850
Wolfard, Sofia SL 2013-02-17 9.000 7.500 8.450 8.000 32.950
Wood, Hadley BR 2013-02-17 8.200 6.500 7.600 7.400 29.700
Woods, Dylan 3 2013-02-17 8.900 8.400 8.150 8.200 33.650
Woods, Sara SL 2013-02-17 9.000 7.500 8.450 8.000 32.950
YANIERA, GRACE BR 2013-02-17 7.700 6.800 8.200 8.300 31.000
Zechello, Madison SL 2013-02-17 9.000 7.500 8.450 8.000 32.950
Zugasti, Jazmin SL 2013-02-17 9.000 7.500 8.450 8.000 32.950
Trimble, Francesca SS 2013-02-15 9.675 9.300 9.500 9.600 36.750
Castellini, Camryn SS 2013-01-18 9.300 7.000 8.400 8.200 32.900
Grant, Lauren CP 2013-01-18 8.500 7.750 8.400 8.350 33.000
Hassen, Anita BS 2013-01-18 7.200 8.600 7.200 8.200 31.200
Hastings, Peyton 3 2013-01-18 8.300 8.100 8.750 8.450 33.600
Moore, Riley CP 2013-01-18 9.400 8.250 8.550 8.500 34.700
Rode, Logan BS 2013-01-18 6.500 7.900 7.600 8.900 30.900
Sorbello, Andrea BS 2013-01-18 7.300 6.700 7.500 8.750 30.250
Crispin, Kristin 9 2012-04-13 9.200 8.500 8.800 8.800 35.300
Falk, Janine BR 2012-03-11 8.900 8.800 8.300 9.000 34.300
Rathbone, Kaylee 3 2012-03-11 9.200 8.150 8.800 8.500 34.400
Salvatierra, Rosa 4S 2012-02-24 9.150 8.350 8.800 9.275 35.150
Henry, Carolece 3 2012-02-05 9.200 8.800 9.050 9.300 35.900
Duschek, Madison 5S 2012-01-13 8.650 9.050 9.250 9.200 35.850
Nagle, Amber 4S 2012-01-13 9.100 9.450 8.750 8.800 35.950
Roberts, Gracee CP 2012-01-13 9.500 9.225 8.750 9.200 36.000
Hayes, Carolece 3 2011-03-27 9.100 6.450 8.700 8.300 32.550
McCall, Lauren 3 2011-03-27 8.900 9.450 8.900 8.850 36.100
Sayers, Emilee 3 2011-03-27 9.050 7.300 8.500 8.800 33.650
Thompson, Rachel 5 2011-01-21 9.500 8.600 8.975 9.050 34.850
Thompson, Taylin 5 2011-01-21 9.550 9.000 8.625 9.050 35.400
Anichino, Tristan CP 2011-01-14 8.800 8.400 7.800 8.750 33.750
Battersby, Emma 3 2011-01-14 8.800 7.900 8.200 8.750 33.650
Colbert, Cree 3 2011-01-14 8.900 9.400 8.400 9.050 35.050
Criss, Amy SL 2011-01-14 9.400 8.000 9.200 9.600 35.450
Drozdowski, Alexis 4 2011-01-14 8.900 8.325 7.250 8.775 32.800
Duschek, Maddy BR 2011-01-14 8.200 9.150 7.600 8.550 33.500
Kostok, Alana BR 2011-01-14 7.600 8.000 7.900 8.150 31.650
Wettstein, Lindsey 3 2011-01-14 9.050 8.300 8.600 8.700 33.100
Wilson, Morgan SL 2011-01-14 9.050 7.900 8.800 8.850 34.200
Wulff, Katelin CP 2011-01-14 9.100 8.800 8.200 8.000 34.100
Ellis, Kaiya 5 2010-10-17 9.400 8.350 8.500 9.400 35.600
Ellis, Leah 4 2010-10-17 9.150 7.450 8.800 8.400 32.300
Burke, Casey 7 2010-04-25 9.100 9.650 9.500 9.275 36.350
Guilford, Evin CP 2010-04-25 9.100 8.600 7.900 8.900 34.500
Hueneke, Anni SL 2010-04-25 9.550 9.650 9.425 9.325 37.550
Lance, Jenna 6 2010-04-25 9.725 9.600 9.075 9.400 37.375
Miller, Taylor 3 2010-04-25 8.550 6.800 8.000 7.600 30.400
Deem, Kaitlyn 5 2010-01-29 9.800 9.000 9.250 9.200 37.100
Donato, Alyssa 7 2010-01-29 9.450 8.200 9.200 9.225 35.400
Lewis, Tianna 5 2010-01-29 9.450 8.700 9.250 8.825 35.350
Hayes, Madysen 3 2010-01-15 9.100 6.800 7.450 7.950 31.300
Soto, Abigail 4 2010-01-15 9.350 8.350 8.900 9.000 34.300
Williams, Kaitlyn SL 2010-01-15 9.325 9.350 9.275 8.400 34.325
Williams, Taylor 4 2010-01-15 9.350 8.250 7.850 8.550 33.400
Ellis, Kayia 4 2009-11-22 9.200 8.400 8.700 9.250 35.550
Robbins, Caroline 5 2009-09-27 9.575 8.750 8.450 8.050 34.525
Penza, Devan 9 2009-04-17 9.075 9.000 9.300 9.275 35.725
Elwell, Deanna 7 2009-03-15 9.350 9.250 9.425 9.150 36.650
Reilly, Galina 4N 2009-03-15 9.500 8.775 8.500 8.500 34.925
Bush, Deanna 3 2009-02-14 9.075 8.250 8.450 7.800 33.575
Geletka, Anastasia 3 2009-02-14 9.175 8.200 8.800 8.850 35.025
Haer, Teehen 4 2009-02-14 8.800 8.600 9.200 9.000 35.600
Imanaga, Elika 3 2009-02-14 8.400 8.400 8.475 8.450 33.725
Lewis, Tiana 3 2009-02-14 8.750 7.900 9.100 8.400 34.150
Nelson, Amani 3 2009-02-14 8.350 7.450 8.100 8.500 32.400
Robertson, Kelsey 4N 2009-02-14 9.450 8.700 8.500 8.800 34.100
Haer, Teeghan 4 2008-10-11 9.250 8.750 9.200 8.675 35.775
Ph-1, Ph-1 8 2007-12-14 0.000 0.000 0.000 0.000 0.000
Ph-1, Ph-1 9 2007-12-14 0.000 0.000 0.000 0.000 0.000
Ph-2, Ph-2 9 2007-12-14 0.000 0.000 0.000 0.000 0.000
Elwell, Jocelyn 10 2007-03-31 9.250 6.750 8.500 7.950 32.450
Hannan, Holly 10 2006-11-18 8.875 8.675 9.300 9.175 36.025
Liedike, Nicole 8 2006-11-18 8.050 7.150 8.200 8.250 31.650
Montana, Jenna 5 2006-11-18 8.300 8.050 8.775 8.600 33.725
Patane, Brittany 9 2006-11-18 8.575 8.900 8.850 8.975 35.300
Sheppard, Delaney 4 2006-11-18 8.200 8.400 7.550 8.200 32.350
Thomson, Jacquelyn 4 2006-11-18 8.650 8.600 8.000 8.650 33.900
 
Team Records
Level Vault Bars Beam Floor AA
3 29.200
2014-01-18
28.650
2014-01-17
29.200
2014-01-17
29.050
2014-01-17
115.400
2014-01-17
4 29.100
2009-03-15
28.825
2014-11-08
28.975
2015-02-13
29.000
2015-02-13
114.350
2015-02-13
5 28.075
2008-05-17
28.425
2009-02-14
28.325
2008-02-29
27.775
2013-03-02
112.000
2008-05-17
6 28.800
2016-04-23
28.525
2017-01-28
29.000
2016-02-26
29.325
2017-02-24
114.500
2016-02-12
7 28.650
2017-04-01
28.025
2018-04-20
28.875
2018-04-07
28.700
2017-04-22
113.600
2018-04-07
8 28.025
2015-02-28
27.975
2017-12-07
28.150
2018-04-06
28.925
2015-02-20
110.950
2017-12-07
9 27.675
2012-03-11
27.000
2018-04-12
27.700
2012-03-11
28.150
2012-03-03
109.100
2018-04-12
10 18.925
2014-03-14
17.475
2017-02-02
18.350
2014-01-17
18.650
2014-03-14
71.575
2017-04-05
XB 28.800
2018-04-07
29.200
2017-04-01
28.850
2018-01-12
28.700
2018-04-07
113.950
2018-01-12
XS 28.600
2017-12-16
28.500
2018-04-07
29.000
2017-06-02
28.350
2017-01-13
2017-06-02
112.950
2018-04-07
XG 27.750
2017-12-16
27.700
2018-03-17
2018-04-07
27.600
2018-04-07
27.750
2018-03-17
109.650
2018-03-17
Individual Records
Level Vault Bars Beam Floor AA
3 9.775
Ava Foster
9.750
Brooke Lancetta
9.825
Brooke Lancetta
9.750
Rebecca Roscoe
38.750
Brooke Lancetta
4 9.800
Brayden Battavio
Kaitlyn Deem
9.650
Ava Foster
9.825
Brooke Lancetta
9.775
Brooke Lancetta
38.350
Brooke Lancetta
5 9.800
Bethany Hannum
9.700
Ava Kelly
9.725
Brayden Battavio
9.500
Bethany Hannum
38.150
Bethany Hannum
6 9.700
Emily Ford
9.600
Rebecca Roscoe
9.800
Brooke Lancetta
9.825
Rebecca Roscoe
38.600
Brooke Lancetta
7 9.800
Julia Heath
9.600
Mikki Otero
9.750
Ava Foster
Angelina Stanfa
9.725
Mikki Otero
38.050
Alyson Sobczak
Angelina Stanfa
8 9.475
Shan'teria Myrick
9.675
Mikki Otero
9.625
Abbie Lancetta
9.775
Brayden Battavio
37.650
Brayden Battavio
9 9.750
Kristen Crispin
9.350
Ciana Rios
9.550
Kristen Crispin
9.700
Brayden Battavio
37.425
Kristen Crispin
10 9.525
Brayden Battavio
Kylyn Dawkins
9.525
Brayden Battavio
9.400
Brayden Battavio
9.475
Brayden Battavio
36.675
Brayden Battavio
XB 9.800
Kimora Lee
9.825
Hailey Kucharczuk
9.650
Carly Ruegger
9.600
Hailey Kucharczuk
Addison Menz
Morgan Papiano
Carly Ruegger
38.000
Carly Ruegger
XS 9.700
Jones Kaitlyn
9.700
Zenyla Cruz
9.700
Kaylee Hammond
Tanner Padalik
9.800
Alexandra Grundlock
37.850
Hannah Smith
XG 9.450
Pearlingi Gianna
9.500
Alexandra Grundlock
9.500
Alexandra Grundlock
9.400
Alexandra Grundlock
37.050
Alexandra Grundlock
Gymnasts on 2017 America's Top 100
Name Level Vault Bars Beam Floor AA
Roscoe, Rebecca 6 9.825
Gymnasts on 2016 America's Top 100
Name Level Vault Bars Beam Floor AA
Battavio, Brayden 9 9.700
Grundlock, Alexandra XS 9.800
Lancetta, Brooke 6 9.800 38.600
Roscoe, Becca 6 9.800
Gymnasts on 2015 America's Top 100
Name Level Vault Bars Beam Floor AA
Battavio, Brayden 8 9.775
Gymnasts on 2014 America's Top 100
Name Level Vault Bars Beam Floor AA
LANCETTA, BROOKE 4 9.800
Lancetta, Brooke 3 9.825 38.750
Gymnasts on 2013 America's Top 100
Name Level Vault Bars Beam Floor AA
Crispin, Kristen 9 9.750
Gymnasts on 2010 America's Top 100
Name Level Vault Bars Beam Floor AA
Lance, Jenna 5 9.600
Gymnasts on 2009 America's Top 100
Name Level Vault Bars Beam Floor AA
Hannum, Bethany 5 9.800